Time;durP1;ratioP1;P1;durP2;ratioP2;P2;SDS_P1;SDS_P2;PMS_P1;PMS_P2;Temp;Humidity;BMP_temperature;BMP_pressure;BME280_temperature;BME280_humidity;BME280_pressure;Samples;Min_cycle;Max_cycle;Signal;HPM_P1;HPM_P2
2023/01/21 00:02:28;;;;;;;151.48;46.58;;;;;;;;;;4932889;29;20062;-72
2023/01/21 00:04:55;;;;;;;99.95;35.08;;;;;;;;;;4948304;28;20055;-72
2023/01/21 00:07:24;;;;;;;69.28;26.42;;;;;;;;;;4944836;28;20070;-72
2023/01/21 00:09:52;;;;;;;56.53;25.52;;;;;;;;;;4948330;29;20079;-72
2023/01/21 00:12:19;;;;;;;64.65;26.48;;;;;;;;;;4932141;29;20388;-72
2023/01/21 00:14:46;;;;;;;62.45;26.20;;;;;;;;;;4945893;28;20059;-72
2023/01/21 00:17:13;;;;;;;59.17;23.98;;;;;;;;;;4943226;28;20062;-72
2023/01/21 00:19:42;;;;;;;59.17;25.63;;;;;;;;;;4966248;28;20047;-72
2023/01/21 00:22:09;;;;;;;60.00;25.17;;;;;;;;;;4965197;28;20062;-72
2023/01/21 00:24:36;;;;;;;57.72;25.95;;;;;;;;;;4966008;28;20043;-72
2023/01/21 00:27:04;;;;;;;62.17;26.75;;;;;;;;;;4959577;28;20059;-72
2023/01/21 00:29:31;;;;;;;58.92;25.42;;;;;;;;;;4962018;28;20466;-72
2023/01/21 00:31:58;;;;;;;59.42;24.15;;;;;;;;;;4963208;28;20051;-71
2023/01/21 00:34:25;;;;;;;58.70;25.50;;;;;;;;;;4963319;28;20406;-72
2023/01/21 00:36:54;;;;;;;56.53;24.52;;;;;;;;;;4963696;28;20054;-72
2023/01/21 00:39:21;;;;;;;59.38;23.83;;;;;;;;;;4964503;28;20055;-71
2023/01/21 00:41:48;;;;;;;60.00;24.77;;;;;;;;;;4966162;28;20414;-72
2023/01/21 00:44:16;;;;;;;63.63;25.55;;;;;;;;;;4962910;28;20051;-72
2023/01/21 00:46:43;;;;;;;59.50;25.92;;;;;;;;;;4962481;28;20068;-72
2023/01/21 00:49:11;;;;;;;59.17;25.48;;;;;;;;;;4968666;28;20050;-71
2023/01/21 00:51:38;;;;;;;61.80;25.63;;;;;;;;;;4967950;28;20050;-72
2023/01/21 00:54:08;;;;;;;61.80;26.00;;;;;;;;;;4966115;28;20061;-72
2023/01/21 00:56:35;;;;;;;65.53;27.92;;;;;;;;;;4969124;28;20054;-72
2023/01/21 00:59:03;;;;;;;87.75;36.40;;;;;;;;;;4967059;28;20051;-72
2023/01/21 01:01:36;;;;;;;83.45;33.67;;;;;;;;;;4968074;28;20050;-72
2023/01/21 01:04:04;;;;;;;;;;;;;;;;;;4969357;28;20474;-72
2023/01/21 01:06:31;;;;;;;103.68;37.58;;;;;;;;;;4961594;28;19937;-72
2023/01/21 01:08:59;;;;;;;118.28;43.95;;;;;;;;;;4962078;28;20490;-72
2023/01/21 01:11:28;;;;;;;89.88;34.75;;;;;;;;;;4963465;28;20133;-72
2023/01/21 01:13:55;;;;;;;64.05;27.10;;;;;;;;;;4960563;28;20058;-72
2023/01/21 01:16:23;;;;;;;70.20;29.25;;;;;;;;;;4964930;28;20042;-72
2023/01/21 01:18:51;;;;;;;75.20;28.92;;;;;;;;;;4968893;28;20059;-72
2023/01/21 01:21:20;;;;;;;64.28;25.88;;;;;;;;;;4965790;28;20057;-72
2023/01/21 01:23:48;;;;;;;69.15;27.35;;;;;;;;;;4968409;28;20058;-72
2023/01/21 01:26:15;;;;;;;71.28;28.92;;;;;;;;;;4979398;28;20055;-72
2023/01/21 01:28:44;;;;;;;61.45;26.80;;;;;;;;;;4960727;28;20053;-72
2023/01/21 01:31:13;;;;;;;65.65;26.92;;;;;;;;;;4958416;28;20039;-71
2023/01/21 01:33:40;;;;;;;67.13;26.10;;;;;;;;;;4965288;28;20073;-72
2023/01/21 01:36:09;;;;;;;64.45;28.20;;;;;;;;;;4962587;28;20043;-72
2023/01/21 01:38:36;;;;;;;65.93;27.27;;;;;;;;;;4965151;28;20065;-72
2023/01/21 01:41:04;;;;;;;68.50;27.55;;;;;;;;;;4962637;28;20051;-72
2023/01/21 01:43:46;;;;;;;58.75;25.65;;;;;;;;;;4965878;28;20058;-72
2023/01/21 01:46:15;;;;;;;64.05;27.27;;;;;;;;;;4954786;28;20488;-72
2023/01/21 01:48:43;;;;;;;61.97;26.80;;;;;;;;;;4965668;28;20101;-72
2023/01/21 01:51:10;;;;;;;60.05;25.27;;;;;;;;;;4965254;28;20131;-72
2023/01/21 01:53:39;;;;;;;79.25;31.83;;;;;;;;;;4965294;28;20058;-72
2023/01/21 01:56:07;;;;;;;65.07;28.40;;;;;;;;;;4961911;28;20057;-72
2023/01/21 01:58:34;;;;;;;64.05;25.98;;;;;;;;;;4966025;28;20172;-72
2023/01/21 02:01:02;;;;;;;65.13;26.58;;;;;;;;;;4961036;28;20074;-72
2023/01/21 02:03:48;;;;;;;71.05;28.30;;;;;;;;;;4965473;28;20069;-71
2023/01/21 02:06:15;;;;;;;60.03;24.50;;;;;;;;;;4961887;28;20061;-72
2023/01/21 02:08:43;;;;;;;57.63;24.88;;;;;;;;;;4965076;28;20494;-72
2023/01/21 02:11:13;;;;;;;54.72;25.25;;;;;;;;;;4962501;28;20059;-72
2023/01/21 02:13:41;;;;;;;58.55;24.73;;;;;;;;;;4963784;28;20074;-71
2023/01/21 02:16:14;;;;;;;68.38;27.23;;;;;;;;;;4961607;28;20055;-72
2023/01/21 02:18:46;;;;;;;66.43;25.88;;;;;;;;;;4964438;28;20058;-72
2023/01/21 02:21:31;;;;;;;58.80;24.40;;;;;;;;;;4958648;28;20043;-72
2023/01/21 02:24:11;;;;;;;57.05;23.60;;;;;;;;;;4966817;28;20043;-72
2023/01/21 02:26:53;;;;;;;66.07;25.55;;;;;;;;;;4962350;28;20062;-72
2023/01/21 02:29:33;;;;;;;63.42;24.65;;;;;;;;;;4961649;28;20062;-72
2023/01/21 02:32:08;;;;;;;58.47;24.13;;;;;;;;;;4958364;28;20047;-72
2023/01/21 02:34:39;;;;;;;62.63;24.40;;;;;;;;;;4960559;28;20491;-72
2023/01/21 02:37:10;;;;;;;63.20;26.50;;;;;;;;;;4960425;28;20061;-72
2023/01/21 02:39:44;;;;;;;57.95;23.52;;;;;;;;;;4964148;28;20058;-72
2023/01/21 02:42:14;;;;;;;60.17;24.27;;;;;;;;;;4965338;28;20136;-72
2023/01/21 02:44:43;;;;;;;66.65;25.20;;;;;;;;;;4958928;28;20055;-72
2023/01/21 02:47:19;;;;;;;60.50;23.95;;;;;;;;;;4964714;28;20047;-72
2023/01/21 02:49:51;;;;;;;68.20;24.77;;;;;;;;;;4967173;28;20414;-72
2023/01/21 02:52:19;;;;;;;68.93;26.30;;;;;;;;;;4963582;28;20050;-72
2023/01/21 02:54:50;;;;;;;73.80;26.55;;;;;;;;;;4961068;28;20054;-72
2023/01/21 02:57:20;;;;;;;75.45;28.00;;;;;;;;;;4960797;28;20074;-72
2023/01/21 02:59:49;;;;;;;72.43;27.35;;;;;;;;;;4964337;28;20402;-72
2023/01/21 03:02:21;;;;;;;62.13;25.20;;;;;;;;;;4962090;28;20512;-72
2023/01/21 03:04:53;;;;;;;68.65;26.25;;;;;;;;;;4969209;28;20525;-72
2023/01/21 03:07:23;;;;;;;64.78;24.25;;;;;;;;;;4969618;28;20418;-72
2023/01/21 03:09:50;;;;;;;69.82;25.08;;;;;;;;;;4967063;28;20043;-72
2023/01/21 03:12:27;;;;;;;63.42;24.67;;;;;;;;;;4967350;28;20491;-72
2023/01/21 03:17:46;;;;;;;58.97;25.10;;;;;;;;;;4966252;28;20058;-72
2023/01/21 03:20:18;;;;;;;61.30;26.10;;;;;;;;;;4970549;28;20050;-72
2023/01/21 03:22:46;;;;;;;64.25;25.33;;;;;;;;;;4969567;28;20054;-72
2023/01/21 03:25:14;;;;;;;60.50;25.25;;;;;;;;;;4965720;28;20051;-72
2023/01/21 03:27:43;;;;;;;65.20;26.80;;;;;;;;;;4969611;28;20055;-72
2023/01/21 03:30:13;;;;;;;60.17;25.00;;;;;;;;;;4960442;28;20050;-72
2023/01/21 03:32:40;;;;;;;60.95;25.05;;;;;;;;;;4965449;28;20055;-72
2023/01/21 03:35:09;;;;;;;54.38;24.95;;;;;;;;;;4961610;28;20085;-72
2023/01/21 03:37:41;;;;;;;57.42;24.73;;;;;;;;;;4961330;28;20404;-71
2023/01/21 03:40:13;;;;;;;58.78;23.45;;;;;;;;;;4969014;28;20129;-72
2023/01/21 03:42:41;;;;;;;76.95;28.35;;;;;;;;;;4967041;28;20051;-72
2023/01/21 03:45:09;;;;;;;59.42;25.40;;;;;;;;;;4968522;28;20047;-72
2023/01/21 03:47:37;;;;;;;63.00;24.33;;;;;;;;;;4967018;28;20070;-72
2023/01/21 03:50:06;;;;;;;57.42;24.73;;;;;;;;;;4984851;28;20050;-72
2023/01/21 03:52:33;;;;;;;58.03;25.83;;;;;;;;;;4967190;28;20055;-72
2023/01/21 03:55:02;;;;;;;60.25;25.00;;;;;;;;;;4969932;28;20055;-72
2023/01/21 03:57:29;;;;;;;56.63;24.98;;;;;;;;;;4961150;28;20050;-72
2023/01/21 03:59:57;;;;;;;60.85;25.85;;;;;;;;;;4964379;28;20050;-72
2023/01/21 04:02:24;;;;;;;53.58;24.83;;;;;;;;;;4970512;28;20410;-72
2023/01/21 04:04:51;;;;;;;70.10;25.40;;;;;;;;;;4965626;28;20066;-72
2023/01/21 04:07:19;;;;;;;59.85;25.70;;;;;;;;;;4963015;28;20058;-72
2023/01/21 04:09:48;;;;;;;56.90;26.05;;;;;;;;;;4968383;28;20069;-72
2023/01/21 04:12:17;;;;;;;58.78;25.50;;;;;;;;;;4962079;28;20046;-72
2023/01/21 04:14:44;;;;;;;59.80;25.75;;;;;;;;;;4962337;28;20051;-72
2023/01/21 04:17:11;;;;;;;59.45;25.45;;;;;;;;;;4962833;28;20066;-71
2023/01/21 04:19:39;;;;;;;61.65;26.25;;;;;;;;;;4952312;28;20134;-73
2023/01/21 04:22:06;;;;;;;60.45;26.05;;;;;;;;;;4949189;29;20481;-72
2023/01/21 04:24:33;;;;;;;61.50;25.65;;;;;;;;;;4951089;28;20062;-72
2023/01/21 04:27:00;;;;;;;63.05;25.60;;;;;;;;;;4931155;29;20058;-72
2023/01/21 04:29:29;;;;;;;62.15;26.10;;;;;;;;;;4928597;29;20411;-72
2023/01/21 04:31:56;;;;;;;62.42;25.20;;;;;;;;;;4931279;29;20047;-72
2023/01/21 04:34:24;;;;;;;55.75;24.50;;;;;;;;;;4949516;28;20130;-72
2023/01/21 04:36:51;;;;;;;59.90;25.13;;;;;;;;;;4929266;29;20043;-72
2023/01/21 04:39:18;;;;;;;59.22;25.38;;;;;;;;;;4926983;28;20051;-72
2023/01/21 04:41:45;;;;;;;59.88;26.23;;;;;;;;;;4950343;28;20055;-72
2023/01/21 04:44:13;;;;;;;61.13;25.85;;;;;;;;;;4930855;29;20051;-72
2023/01/21 04:46:41;;;;;;;61.17;24.98;;;;;;;;;;4945936;28;20062;-72
2023/01/21 04:49:08;;;;;;;64.97;26.73;;;;;;;;;;4943458;29;20044;-72
2023/01/21 04:51:36;;;;;;;63.85;25.77;;;;;;;;;;4929450;29;20392;-72
2023/01/21 04:54:03;;;;;;;67.10;27.75;;;;;;;;;;4942704;29;20063;-72
2023/01/21 04:56:30;;;;;;;56.65;24.63;;;;;;;;;;4946859;29;20047;-72
2023/01/21 04:58:57;;;;;;;62.60;25.63;;;;;;;;;;4943025;28;20486;-72
2023/01/21 05:01:25;;;;;;;77.15;27.38;;;;;;;;;;4941234;29;20051;-72
2023/01/21 05:03:53;;;;;;;63.03;25.00;;;;;;;;;;4933198;28;20047;-72
2023/01/21 05:06:20;;;;;;;62.80;27.00;;;;;;;;;;4943975;28;20043;-72
2023/01/21 05:08:48;;;;;;;62.97;26.00;;;;;;;;;;4949799;28;20074;-72
2023/01/21 05:11:16;;;;;;;69.65;28.20;;;;;;;;;;4949435;28;20142;-72
2023/01/21 05:13:44;;;;;;;65.47;26.85;;;;;;;;;;4951954;28;20066;-72
2023/01/21 05:16:13;;;;;;;74.85;28.40;;;;;;;;;;4944926;28;20091;-72
2023/01/21 05:18:40;;;;;;;74.88;28.08;;;;;;;;;;4960150;28;20078;-72
2023/01/21 05:21:09;;;;;;;71.35;24.65;;;;;;;;;;4964333;28;20059;-72
2023/01/21 05:23:36;;;;;;;66.95;22.88;;;;;;;;;;4964015;28;20055;-72
2023/01/21 05:26:03;;;;;;;76.43;24.40;;;;;;;;;;4964853;28;20054;-72
2023/01/21 05:28:31;;;;;;;80.75;25.02;;;;;;;;;;4969244;28;20501;-73
2023/01/21 05:31:01;;;;;;;97.68;26.85;;;;;;;;;;4967761;28;20268;-72
2023/01/21 05:33:29;;;;;;;76.15;24.05;;;;;;;;;;4967875;28;20128;-72
2023/01/21 05:35:57;;;;;;;87.80;28.17;;;;;;;;;;4964657;28;20077;-72
2023/01/21 05:38:25;;;;;;;89.18;29.02;;;;;;;;;;4963015;28;20051;-72
2023/01/21 05:40:56;;;;;;;92.07;29.50;;;;;;;;;;4966936;28;20184;-72
2023/01/21 05:43:24;;;;;;;96.20;32.33;;;;;;;;;;4967273;28;20079;-72
2023/01/21 05:45:51;;;;;;;89.07;31.05;;;;;;;;;;4967118;28;20070;-72
2023/01/21 05:48:18;;;;;;;100.25;31.75;;;;;;;;;;4964829;28;20142;-72
2023/01/21 05:50:46;;;;;;;113.28;33.47;;;;;;;;;;4966627;28;20046;-72
2023/01/21 05:53:13;;;;;;;106.53;32.33;;;;;;;;;;4966110;28;20054;-72
2023/01/21 05:55:42;;;;;;;104.93;33.13;;;;;;;;;;4966149;28;20426;-72
2023/01/21 05:58:09;;;;;;;123.15;33.35;;;;;;;;;;4977662;28;20047;-72
2023/01/21 06:00:36;;;;;;;123.53;34.28;;;;;;;;;;4969293;28;20047;-72
2023/01/21 06:03:04;;;;;;;104.75;33.53;;;;;;;;;;4961508;28;20073;-72
2023/01/21 06:05:31;;;;;;;102.72;31.52;;;;;;;;;;4964891;28;20055;-72
2023/01/21 06:07:58;;;;;;;105.43;31.17;;;;;;;;;;4966866;28;20043;-72
2023/01/21 06:10:25;;;;;;;90.50;31.95;;;;;;;;;;4966037;28;20055;-72
2023/01/21 06:12:54;;;;;;;84.35;30.10;;;;;;;;;;4959886;28;20058;-72
2023/01/21 06:15:21;;;;;;;83.88;29.63;;;;;;;;;;4959747;28;20051;-72
2023/01/21 06:17:49;;;;;;;84.43;30.10;;;;;;;;;;4961127;28;20043;-72
2023/01/21 06:20:16;;;;;;;77.47;27.75;;;;;;;;;;4957444;28;20137;-72
2023/01/21 06:22:43;;;;;;;89.72;30.80;;;;;;;;;;4960530;28;20055;-72
2023/01/21 06:25:11;;;;;;;93.95;31.10;;;;;;;;;;4961540;28;20490;-72
2023/01/21 06:27:38;;;;;;;74.57;28.35;;;;;;;;;;4959676;28;20058;-72
2023/01/21 06:30:08;;;;;;;77.07;28.30;;;;;;;;;;4962550;28;20509;-72
2023/01/21 06:32:35;;;;;;;75.43;28.67;;;;;;;;;;4957786;28;20799;-73
2023/01/21 06:35:03;;;;;;;77.20;29.90;;;;;;;;;;4966183;28;20093;-72
2023/01/21 06:37:30;;;;;;;78.68;29.95;;;;;;;;;;4968467;28;20047;-72
2023/01/21 06:39:57;;;;;;;86.40;28.85;;;;;;;;;;4968837;28;20086;-71
2023/01/21 06:42:25;;;;;;;89.25;29.48;;;;;;;;;;4963626;28;20619;-72
2023/01/21 06:44:52;;;;;;;74.45;29.63;;;;;;;;;;4969402;28;21363;-72
2023/01/21 06:47:20;;;;;;;84.65;31.52;;;;;;;;;;4963892;28;20055;-72
2023/01/21 06:49:48;;;;;;;81.57;30.70;;;;;;;;;;4966562;28;20482;-73
2023/01/21 06:52:15;;;;;;;78.72;29.83;;;;;;;;;;4965274;28;20058;-71
2023/01/21 06:54:43;;;;;;;91.10;31.77;;;;;;;;;;4968575;28;20059;-72
2023/01/21 06:57:10;;;;;;;89.45;31.75;;;;;;;;;;4965449;28;20541;-72
2023/01/21 06:59:37;;;;;;;86.10;28.90;;;;;;;;;;4967565;28;20051;-72
2023/01/21 07:02:04;;;;;;;81.28;31.23;;;;;;;;;;4970036;28;20373;-72
2023/01/21 07:04:33;;;;;;;84.60;30.13;;;;;;;;;;4964462;28;20054;-72
2023/01/21 07:07:00;;;;;;;78.07;29.30;;;;;;;;;;4966439;28;20058;-72
2023/01/21 07:09:28;;;;;;;89.82;32.70;;;;;;;;;;4968215;28;20055;-72
2023/01/21 07:11:55;;;;;;;88.45;33.35;;;;;;;;;;4967993;28;20054;-72
2023/01/21 07:14:22;;;;;;;107.03;35.35;;;;;;;;;;4969845;28;20086;-72
2023/01/21 07:16:49;;;;;;;86.70;31.52;;;;;;;;;;4964321;28;20058;-72
2023/01/21 07:19:17;;;;;;;84.88;31.05;;;;;;;;;;4964207;28;20664;-72
2023/01/21 07:21:45;;;;;;;83.72;32.10;;;;;;;;;;4971256;28;20057;-72
2023/01/21 07:24:12;;;;;;;87.28;32.10;;;;;;;;;;4964570;28;20069;-72
2023/01/21 07:26:40;;;;;;;84.63;32.00;;;;;;;;;;4964561;28;20058;-72
2023/01/21 07:29:08;;;;;;;89.60;32.45;;;;;;;;;;4970325;28;20065;-72
2023/01/21 07:31:35;;;;;;;82.40;31.33;;;;;;;;;;4968976;28;20091;-72
2023/01/21 07:34:02;;;;;;;85.15;30.65;;;;;;;;;;4966455;28;20050;-72
2023/01/21 07:36:30;;;;;;;84.03;30.75;;;;;;;;;;4962177;28;20113;-72
2023/01/21 07:38:58;;;;;;;77.80;30.80;;;;;;;;;;4967303;28;20050;-71
2023/01/21 07:41:26;;;;;;;81.05;31.67;;;;;;;;;;4983825;28;20474;-72
2023/01/21 07:43:53;;;;;;;84.95;32.45;;;;;;;;;;4960036;28;20066;-72
2023/01/21 07:46:21;;;;;;;86.25;32.00;;;;;;;;;;4969754;28;20043;-72
2023/01/21 07:48:49;;;;;;;82.95;31.88;;;;;;;;;;4964797;28;20055;-72
2023/01/21 07:51:17;;;;;;;81.63;31.83;;;;;;;;;;4965321;28;20525;-72
2023/01/21 07:53:44;;;;;;;83.20;31.98;;;;;;;;;;4961424;28;20059;-72
2023/01/21 07:56:13;;;;;;;85.38;31.77;;;;;;;;;;4964971;28;20406;-72
2023/01/21 07:58:41;;;;;;;83.13;31.58;;;;;;;;;;4971748;28;20134;-72
2023/01/21 08:01:09;;;;;;;78.07;31.70;;;;;;;;;;4963411;28;20062;-73
2023/01/21 08:03:36;;;;;;;86.45;31.13;;;;;;;;;;4971083;28;20054;-72
2023/01/21 08:06:03;;;;;;;88.28;31.98;;;;;;;;;;4968857;28;20038;-72
2023/01/21 08:08:31;;;;;;;83.80;31.52;;;;;;;;;;4969547;28;20509;-72
2023/01/21 08:10:58;;;;;;;89.88;32.03;;;;;;;;;;4966851;28;20058;-72
2023/01/21 08:13:27;;;;;;;84.35;33.80;;;;;;;;;;4958438;28;20059;-72
2023/01/21 08:15:55;;;;;;;81.30;31.95;;;;;;;;;;4969562;28;20417;-72
2023/01/21 08:18:23;;;;;;;73.50;31.05;;;;;;;;;;4967778;28;20664;-72
2023/01/21 08:20:54;;;;;;;85.53;31.58;;;;;;;;;;4966357;28;20065;-72
2023/01/21 08:23:21;;;;;;;84.65;30.58;;;;;;;;;;4962156;28;20625;-72
2023/01/21 08:25:48;;;;;;;82.70;30.98;;;;;;;;;;4964482;28;20058;-73
2023/01/21 08:28:16;;;;;;;75.43;31.00;;;;;;;;;;4961373;28;20051;-72
2023/01/21 08:30:44;;;;;;;75.50;30.88;;;;;;;;;;4968717;28;20050;-72
2023/01/21 08:33:12;;;;;;;76.13;30.48;;;;;;;;;;4964802;28;20050;-73
2023/01/21 08:35:39;;;;;;;84.95;31.63;;;;;;;;;;4965382;28;20065;-72
2023/01/21 08:38:06;;;;;;;81.45;29.77;;;;;;;;;;4963963;28;20606;-73
2023/01/21 08:40:33;;;;;;;91.75;33.60;;;;;;;;;;4963786;28;20581;-73
2023/01/21 08:43:01;;;;;;;83.32;32.50;;;;;;;;;;4966332;28;20102;-72
2023/01/21 08:45:29;;;;;;;82.25;32.25;;;;;;;;;;4966746;28;20065;-73
2023/01/21 08:47:57;;;;;;;82.35;32.35;;;;;;;;;;4964321;28;20069;-72
2023/01/21 08:50:24;;;;;;;82.90;33.45;;;;;;;;;;4978626;28;20057;-72
2023/01/21 08:52:52;;;;;;;81.50;33.38;;;;;;;;;;4963343;28;20484;-73
2023/01/21 08:55:19;;;;;;;84.95;33.30;;;;;;;;;;4964681;28;20065;-73
2023/01/21 08:57:50;;;;;;;86.60;31.20;;;;;;;;;;4963244;28;20050;-72
2023/01/21 09:00:18;;;;;;;86.15;32.08;;;;;;;;;;4965402;28;20462;-72
2023/01/21 09:02:46;;;;;;;77.78;30.48;;;;;;;;;;4968387;28;20062;-72
2023/01/21 09:05:14;;;;;;;90.63;32.35;;;;;;;;;;4960402;28;20051;-72
2023/01/21 09:07:42;;;;;;;81.35;32.15;;;;;;;;;;4963536;28;20082;-73
2023/01/21 09:10:09;;;;;;;87.28;34.63;;;;;;;;;;4964622;28;20518;-73
2023/01/21 09:12:37;;;;;;;94.97;36.05;;;;;;;;;;4962193;28;20058;-72
2023/01/21 09:15:04;;;;;;;94.70;35.75;;;;;;;;;;4956744;28;20047;-73
2023/01/21 09:17:33;;;;;;;72.75;31.67;;;;;;;;;;4963670;28;20050;-73
2023/01/21 09:20:00;;;;;;;71.38;31.58;;;;;;;;;;4917000;28;1139166;-73
2023/01/21 09:22:29;;;;;;;70.35;30.83;;;;;;;;;;4965113;28;20188;-73
2023/01/21 09:24:56;;;;;;;69.82;28.40;;;;;;;;;;4966782;28;20059;-73
2023/01/21 09:27:26;;;;;;;71.38;30.67;;;;;;;;;;4966036;28;20046;-73
2023/01/21 09:29:53;;;;;;;72.18;29.38;;;;;;;;;;4963282;28;20058;-73
2023/01/21 09:32:20;;;;;;;69.15;28.13;;;;;;;;;;4965958;28;20517;-73
2023/01/21 09:34:48;;;;;;;71.22;30.35;;;;;;;;;;4967597;28;20082;-72
2023/01/21 09:37:15;;;;;;;67.35;29.15;;;;;;;;;;4959813;28;20513;-73
2023/01/21 09:39:43;;;;;;;61.72;28.17;;;;;;;;;;4962288;28;20055;-72
2023/01/21 09:42:16;;;;;;;67.57;28.92;;;;;;;;;;4964482;28;20054;-73
2023/01/21 09:44:45;;;;;;;64.97;28.65;;;;;;;;;;4962967;28;20073;-72
2023/01/21 09:47:18;;;;;;;68.30;28.85;;;;;;;;;;4963785;28;20054;-72
2023/01/21 09:49:49;;;;;;;78.40;31.52;;;;;;;;;;4963134;28;20073;-72
2023/01/21 09:52:23;;;;;;;72.65;31.67;;;;;;;;;;4967113;28;20043;-72
2023/01/21 09:54:51;;;;;;;75.68;31.90;;;;;;;;;;4966526;28;20053;-73
2023/01/21 09:57:46;;;;;;;75.75;33.15;;;;;;;;;;4959408;28;20406;-73
2023/01/21 10:00:25;;;;;;;90.38;37.05;;;;;;;;;;4937858;28;20058;-73
2023/01/21 10:02:55;;;;;;;95.35;37.85;;;;;;;;;;4967082;28;20440;-73
2023/01/21 10:05:41;;;;;;;80.13;32.33;;;;;;;;;;4962702;28;20051;-72
2023/01/21 10:08:13;;;;;;;75.82;31.90;;;;;;;;;;4962566;28;20042;-72
2023/01/21 10:10:47;;;;;;;76.65;32.67;;;;;;;;;;4961731;28;20218;-73
2023/01/21 10:13:25;;;;;;;74.55;30.70;;;;;;;;;;4980895;28;20110;-72
2023/01/21 10:15:56;;;;;;;69.13;30.70;;;;;;;;;;4959738;28;20051;-73
2023/01/21 10:18:25;;;;;;;70.15;30.70;;;;;;;;;;4962864;28;20058;-72
2023/01/21 10:20:56;;;;;;;73.20;30.75;;;;;;;;;;4960868;28;20046;-73
2023/01/21 10:23:26;;;;;;;66.03;30.58;;;;;;;;;;4962795;28;20046;-73
2023/01/21 10:25:56;;;;;;;75.97;31.88;;;;;;;;;;4964982;28;20054;-73
2023/01/21 10:28:24;;;;;;;77.00;32.40;;;;;;;;;;4961249;28;20073;-73
2023/01/21 10:30:52;;;;;;;74.07;30.00;;;;;;;;;;4961060;28;20055;-73
2023/01/21 10:33:21;;;;;;;67.53;30.00;;;;;;;;;;4965589;28;20116;-72
2023/01/21 10:36:07;;;;;;;70.85;29.27;;;;;;;;;;4958813;28;20073;-73
2023/01/21 10:38:39;;;;;;;62.30;28.13;;;;;;;;;;4959606;28;20060;-73
2023/01/21 10:41:15;;;;;;;68.15;30.15;;;;;;;;;;4959323;28;20755;-73
2023/01/21 10:43:46;;;;;;;57.17;28.50;;;;;;;;;;4962312;28;20070;-73
2023/01/21 10:46:18;;;;;;;53.17;27.02;;;;;;;;;;4958261;28;20046;-72
2023/01/21 10:48:49;;;;;;;49.03;24.27;;;;;;;;;;4953996;28;20062;-73
2023/01/21 10:51:19;;;;;;;41.33;21.73;;;;;;;;;;4962623;28;20057;-73
2023/01/21 10:53:48;;;;;;;44.30;23.27;;;;;;;;;;4963989;28;20047;-73
2023/01/21 10:56:22;;;;;;;41.67;23.27;;;;;;;;;;4965168;28;20094;-72
2023/01/21 10:58:51;;;;;;;38.78;20.23;;;;;;;;;;4961111;28;20043;-73
2023/01/21 11:01:21;;;;;;;34.97;20.20;;;;;;;;;;4956278;28;20065;-73
2023/01/21 11:03:50;;;;;;;38.15;18.98;;;;;;;;;;4967434;28;20047;-73
2023/01/21 11:06:19;;;;;;;33.70;17.98;;;;;;;;;;4979703;28;20059;-73
2023/01/21 11:08:48;;;;;;;28.33;17.08;;;;;;;;;;4964826;28;20050;-73
2023/01/21 11:11:19;;;;;;;28.40;16.85;;;;;;;;;;4964719;28;20050;-73
2023/01/21 11:13:47;;;;;;;30.75;17.80;;;;;;;;;;4960756;28;20047;-73
2023/01/21 11:16:15;;;;;;;32.28;16.83;;;;;;;;;;4958297;28;20506;-73
2023/01/21 11:18:43;;;;;;;26.10;14.63;;;;;;;;;;4961968;28;20051;-73
2023/01/21 11:21:17;;;;;;;27.25;15.75;;;;;;;;;;4968392;28;20091;-73
2023/01/21 11:23:44;;;;;;;;;;;;;;;;;;4965995;28;20402;-73
2023/01/21 11:26:17;;;;;;;28.88;14.63;;;;;;;;;;4969597;28;19925;-73
2023/01/21 11:28:45;;;;;;;25.55;13.82;;;;;;;;;;4965564;28;20059;-73
2023/01/21 11:31:15;;;;;;;26.13;14.18;;;;;;;;;;4967303;28;20082;-73
2023/01/21 11:33:42;;;;;;;24.63;14.13;;;;;;;;;;4962406;28;20490;-72
2023/01/21 11:36:11;;;;;;;26.92;15.15;;;;;;;;;;4967051;28;20046;-73
2023/01/21 11:38:38;;;;;;;22.88;13.45;;;;;;;;;;4965071;28;20765;-73
2023/01/21 11:41:07;;;;;;;24.55;13.35;;;;;;;;;;4975712;28;20058;-71
2023/01/21 11:43:35;;;;;;;23.35;13.95;;;;;;;;;;4960484;28;20055;-71
2023/01/21 11:46:20;;;;;;;21.83;13.13;;;;;;;;;;4959874;28;20051;-71
2023/01/21 11:48:48;;;;;;;24.02;13.65;;;;;;;;;;4963880;28;20047;-71
2023/01/21 11:51:16;;;;;;;31.73;17.63;;;;;;;;;;4971442;28;20053;-71
2023/01/21 11:53:45;;;;;;;27.55;15.57;;;;;;;;;;4962175;28;20054;-70
2023/01/21 11:56:13;;;;;;;27.80;15.55;;;;;;;;;;4965883;28;20402;-71
2023/01/21 11:58:41;;;;;;;22.05;14.45;;;;;;;;;;4958029;28;20062;-71
2023/01/21 12:01:11;;;;;;;24.25;13.80;;;;;;;;;;4964983;28;20046;-71
2023/01/21 12:03:43;;;;;;;20.00;11.23;;;;;;;;;;4966225;28;20046;-71
2023/01/21 12:06:10;;;;;;;17.48;10.57;;;;;;;;;;4967854;28;20374;-71
2023/01/21 12:08:40;;;;;;;17.38;9.95;;;;;;;;;;4965226;28;20057;-73
2023/01/21 12:11:10;;;;;;;17.52;10.30;;;;;;;;;;4964202;28;20061;-73
2023/01/21 12:13:42;;;;;;;17.08;10.25;;;;;;;;;;4958026;28;20059;-73
2023/01/21 12:16:30;;;;;;;20.60;10.60;;;;;;;;;;4964924;28;20058;-72
2023/01/21 12:19:08;;;;;;;17.27;9.57;;;;;;;;;;4962214;28;20078;-72
2023/01/21 12:21:44;;;;;;;18.73;10.10;;;;;;;;;;4960991;28;20067;-73
2023/01/21 12:24:18;;;;;;;15.00;9.15;;;;;;;;;;4968481;28;20057;-73
2023/01/21 12:26:47;;;;;;;19.27;10.13;;;;;;;;;;4967808;28;20417;-73
2023/01/21 12:29:21;;;;;;;19.35;9.02;;;;;;;;;;4960747;28;20051;-73
2023/01/21 12:31:51;;;;;;;16.02;9.40;;;;;;;;;;4960052;28;20042;-73
2023/01/21 12:34:22;;;;;;;17.33;9.55;;;;;;;;;;4965194;28;20054;-73
2023/01/21 12:36:51;;;;;;;15.60;9.65;;;;;;;;;;4967499;28;20061;-73
2023/01/21 12:39:21;;;;;;;21.40;10.68;;;;;;;;;;4964418;28;20062;-73
2023/01/21 12:41:52;;;;;;;19.60;9.65;;;;;;;;;;4964016;28;20420;-73
2023/01/21 12:44:24;;;;;;;17.10;9.57;;;;;;;;;;4962256;28;20532;-73
2023/01/21 12:46:53;;;;;;;16.35;9.32;;;;;;;;;;4957292;28;20521;-73
2023/01/21 12:49:23;;;;;;;18.98;10.23;;;;;;;;;;4964163;28;20090;-73
2023/01/21 12:51:54;;;;;;;16.38;9.85;;;;;;;;;;4965392;28;20067;-73
2023/01/21 12:54:25;;;;;;;18.33;10.40;;;;;;;;;;4960868;28;20066;-73
2023/01/21 12:56:55;;;;;;;18.50;10.55;;;;;;;;;;4961753;28;20524;-70
2023/01/21 12:59:25;;;;;;;23.17;11.68;;;;;;;;;;4962390;28;20502;-73
2023/01/21 13:01:55;;;;;;;22.88;11.73;;;;;;;;;;4962507;28;20490;-73
2023/01/21 13:04:35;;;;;;;17.60;10.93;;;;;;;;;;4964032;28;20058;-73
2023/01/21 13:07:05;;;;;;;15.88;9.70;;;;;;;;;;4967729;28;20067;-73
2023/01/21 13:09:36;;;;;;;16.15;8.50;;;;;;;;;;4960667;28;20423;-73
2023/01/21 13:12:05;;;;;;;18.90;8.10;;;;;;;;;;4960881;28;20506;-73
2023/01/21 13:14:34;;;;;;;16.40;8.52;;;;;;;;;;4968724;28;20779;-73
2023/01/21 13:17:04;;;;;;;16.38;8.38;;;;;;;;;;4962223;28;20050;-73
2023/01/21 13:19:33;;;;;;;9.65;5.75;;;;;;;;;;4969118;28;20506;-73
2023/01/21 13:22:04;;;;;;;9.50;5.70;;;;;;;;;;4969611;28;20055;-72
2023/01/21 13:24:32;;;;;;;9.73;5.60;;;;;;;;;;4981472;28;20517;-73
2023/01/21 13:27:03;;;;;;;10.10;5.75;;;;;;;;;;4958174;28;20054;-72
2023/01/21 13:29:35;;;;;;;9.25;5.45;;;;;;;;;;4961757;28;20051;-73
2023/01/21 13:32:14;;;;;;;11.20;6.18;;;;;;;;;;4962895;28;20054;-73
2023/01/21 13:34:46;;;;;;;9.90;5.70;;;;;;;;;;4967604;28;20058;-73
2023/01/21 13:37:15;;;;;;;8.77;5.38;;;;;;;;;;4965752;28;20059;-73
2023/01/21 13:39:45;;;;;;;9.05;5.47;;;;;;;;;;4964044;28;20058;-72
2023/01/21 13:42:27;;;;;;;10.30;5.63;;;;;;;;;;4965370;28;20062;-73
2023/01/21 13:45:04;;;;;;;10.05;5.32;;;;;;;;;;4964594;28;20058;-73
2023/01/21 13:47:36;;;;;;;9.13;4.78;;;;;;;;;;4974608;28;20059;-73
2023/01/21 13:50:15;;;;;;;8.38;4.57;;;;;;;;;;4967160;28;20553;-73
2023/01/21 13:52:47;;;;;;;6.68;3.88;;;;;;;;;;4959619;28;20047;-73
2023/01/21 13:55:21;;;;;;;7.50;3.72;;;;;;;;;;4967897;28;20511;-73
2023/01/21 13:57:57;;;;;;;6.40;3.83;;;;;;;;;;4968948;28;20745;-73
2023/01/21 14:00:26;;;;;;;6.88;3.95;;;;;;;;;;4968201;28;20410;-73
2023/01/21 14:02:55;;;;;;;7.57;4.25;;;;;;;;;;4979436;28;20513;-72
2023/01/21 14:05:27;;;;;;;5.88;4.20;;;;;;;;;;4969643;28;20042;-73
2023/01/21 14:07:56;;;;;;;7.70;3.92;;;;;;;;;;4961166;28;20050;-73
2023/01/21 14:10:26;;;;;;;9.02;3.90;;;;;;;;;;4957521;28;20047;-73
2023/01/21 14:13:02;;;;;;;8.45;4.40;;;;;;;;;;4964067;28;20059;-73
2023/01/21 14:15:42;;;;;;;8.85;4.13;;;;;;;;;;4969093;28;20047;-73
2023/01/21 14:18:15;;;;;;;6.70;4.00;;;;;;;;;;4966997;28;20413;-71
2023/01/21 14:21:04;;;;;;;6.80;4.32;;;;;;;;;;4967995;28;20047;-71
2023/01/21 14:23:48;;;;;;;6.20;3.80;;;;;;;;;;4945694;28;20063;-71
2023/01/21 14:26:22;;;;;;;6.15;4.00;;;;;;;;;;4963471;28;20054;-71
2023/01/21 14:28:54;;;;;;;6.43;4.05;;;;;;;;;;4961848;28;20058;-71
2023/01/21 14:31:23;;;;;;;6.65;4.25;;;;;;;;;;4965474;28;20065;-71
2023/01/21 14:33:54;;;;;;;6.25;4.43;;;;;;;;;;4963419;28;20047;-71
2023/01/21 14:36:24;;;;;;;8.38;4.72;;;;;;;;;;4957812;28;20470;-70
2023/01/21 14:38:56;;;;;;;8.52;4.85;;;;;;;;;;4962202;28;20461;-71